Hulshout, Belgium
Current Conditions -  °F | °C
As of 9:25 PM on Tuesday 27 Jan 2015 (Local Time) from EBDT Reporting Station
Clear Clear  
Wind Chill: 33°   Ceiling: Unl
Heat Index: 37°   Visibility: 6mi
Dew Point: 34°   Wind: 6mph
Humidity: 87%   Direction: 240°WSW
Pressure: 30.21"   Gusts: NA
Location:  51.07°N, 4.79°E
Report Text: EBDT 272025Z AUTO 24005KT 9999 NCD 03/01 Q1023 BLU
Loading
Personal Weather Stations






























Interactive Weather Map New forecast layout! Learn more

10-Day Weather Forecast

Advertisements
Track Severe Weather on mobile